Airfield :
LOGIN :

Register | Disclaimer

   EN    FR    IT 

 










Legend :    VFR   Marginal VFR   IFR   Intensive IFR   Very Intensive IFR
Visi :
Ceiling :
>= 8 km
>= 3000ft
5 to 8 km
1000 to 3000 ft
1500m to 5 km
500 to 1000 ft
800 to 1500m
200 to 500 ft
< 800m
< 200 ft
Symbols :   Thunderstorms  Fog  Heavy snow  Heavy precipitations  Wind > 20 kt
SIGMETs :     Misc.  Thunderstorms  Icing  Turbulence  Mountain Waves  Volcanic Ashes






- Airport Elevation : 13 ft
- IATA code : LYX


EGMD - Lydd

CURRENT METAR :
  • 161150Z 20006KT 9999 FEW019 BKN024 09/08 Q1002

EXPIRED METARs :
  • 161120Z 18005KT 9999 -RA SCT021 BKN026 10/08 Q1002
  • 161050Z VRB03KT 9999 FEW023 BKN029 09/08 Q1002
  • 161020Z 23005KT 9999 SCT015 FEW020 10/08 Q1003
  • 160950Z 22008KT 9999 FEW026 10/08 Q1002
  • 160920Z 21010KT 9999 FEW015 SCT043 10/07 Q1002

TAF TAF EGMD
Valid from the 16 at 12:00 until the 16 at 21:00 UTC


161058Z 1612/1621 21010KT 9999 FEW030
TEMPO 1612/1621 6000 RA BKN010
BECMG 1615/1618 09003KT
PROB30
TEMPO 1618/1621 3000 RADZ BKN007
ATIS : +44 1797 322 422



MET'MAP, your aeronautical weather chart ! - Copyright ORBIFLY December 2007 - Disclaimer

ORBIFLY MET'MAP TEAM :

Programming & Development : Alexandra Zaïnal
Concept & original design : Baudouin d'Aumeries
Assistance for programming : Marc-Olivier Méhu
Technical & hardware support : Manuel Goepfert

Contact : metmap@orbifly.com




SOURCES & CREDITS :

   NOAA